Time,TemperatureF,DewpointF,PressureIn,WindDirection,WindDirectionDegrees,WindSpeedMPH,WindSpeedGustMPH,Humidity,HourlyPrecipIn,Conditions,Clouds,dailyrainin,SolarRadiationWatts/m^2,SoftwareType,DateUTC
2013-04-01 00:02:00,64.0,22.0,30.01,West,259,6.0,13.0,19,-99.99,,,-99.99,0.000000,,2013-04-01 06:02:00,
2013-04-01 00:12:00,65.0,23.0,30.01,West,268,6.0,8.0,20,-99.99,,,-99.99,0.000000,,2013-04-01 06:12:00,
2013-04-01 00:22:00,65.0,23.0,30.01,West,268,6.0,8.0,20,-99.99,,,-99.99,0.000000,,2013-04-01 06:22:00,
2013-04-01 00:33:00,65.0,23.0,30.00,West,270,5.0,8.0,20,-99.99,,,-99.99,0.000000,,2013-04-01 06:33:00,
2013-04-01 00:43:00,64.0,23.0,30.00,WSW,255,5.0,8.0,20,-99.99,,,-99.99,0.000000,,2013-04-01 06:43:00,
2013-04-01 00:53:00,64.0,23.0,30.00,WSW,255,5.0,8.0,20,-99.99,,,-99.99,0.000000,,2013-04-01 06:53:00,
2013-04-01 01:02:00,65.0,22.0,30.00,West,277,5.0,8.0,19,-99.99,,,-99.99,0.000000,,2013-04-01 07:02:00,
2013-04-01 01:12:00,63.0,22.0,30.00,West,268,5.0,10.0,20,-99.99,,,-99.99,0.000000,,2013-04-01 07:12:00,
2013-04-01 01:22:00,63.0,22.0,30.00,West,268,5.0,10.0,20,-99.99,,,-99.99,0.000000,,2013-04-01 07:22:00,
2013-04-01 01:32:00,61.0,21.0,30.00,West,269,4.0,9.0,21,-99.99,,,-99.99,0.000000,,2013-04-01 07:32:00,
2013-04-01 01:42:00,60.0,22.0,30.00,West,278,5.0,10.0,23,-99.99,,,-99.99,0.000000,,2013-04-01 07:42:00,
2013-04-01 01:53:00,60.0,22.0,30.00,West,278,5.0,10.0,23,-99.99,,,-99.99,0.000000,,2013-04-01 07:53:00,
2013-04-01 02:02:00,60.0,22.0,30.00,West,278,5.0,10.0,23,-99.99,,,-99.99,0.000000,,2013-04-01 08:02:00,
2013-04-01 02:12:00,61.0,21.0,30.00,West,269,5.0,8.0,21,-99.99,,,-99.99,0.000000,,2013-04-01 08:12:00,
2013-04-01 02:22:00,61.0,21.0,30.00,West,269,5.0,8.0,21,-99.99,,,-99.99,0.000000,,2013-04-01 08:22:00,
2013-04-01 02:32:00,62.0,20.0,30.00,WNW,292,4.0,8.0,19,-99.99,,,-99.99,0.000000,,2013-04-01 08:32:00,
2013-04-01 02:43:00,60.0,21.0,30.00,West,276,5.0,7.0,22,-99.99,,,-99.99,0.000000,,2013-04-01 08:43:00,
2013-04-01 02:53:00,60.0,21.0,30.00,West,276,5.0,7.0,22,-99.99,,,-99.99,0.000000,,2013-04-01 08:53:00,
2013-04-01 03:02:00,62.0,20.0,29.99,NW,310,3.0,5.0,19,-99.99,,,-99.99,0.000000,,2013-04-01 09:02:00,
2013-04-01 03:12:00,60.0,22.0,29.99,WNW,293,2.0,5.0,23,-99.99,,,-99.99,0.000000,,2013-04-01 09:12:00,
2013-04-01 03:22:00,60.0,22.0,29.99,WNW,293,2.0,5.0,23,-99.99,,,-99.99,0.000000,,2013-04-01 09:22:00,
2013-04-01 03:33:00,59.0,23.0,30.00,SSE,162,2.0,4.0,24,-99.99,,,-99.99,0.000000,,2013-04-01 09:33:00,
2013-04-01 03:42:00,58.0,23.0,30.00,SSW,209,3.0,5.0,25,-99.99,,,-99.99,0.000000,,2013-04-01 09:42:00,
2013-04-01 03:53:00,58.0,23.0,30.00,SSW,209,3.0,5.0,25,-99.99,,,-99.99,0.000000,,2013-04-01 09:53:00,
2013-04-01 04:03:00,58.0,22.0,29.99,West,273,3.0,7.0,24,-99.99,,,-99.99,0.000000,,2013-04-01 10:03:00,
2013-04-01 04:12:00,59.0,20.0,29.99,NW,306,3.0,8.0,22,-99.99,,,-99.99,0.000000,,2013-04-01 10:12:00,
2013-04-01 04:23:00,59.0,20.0,29.99,NW,306,3.0,8.0,22,-99.99,,,-99.99,0.000000,,2013-04-01 10:23:00,
2013-04-01 04:33:00,58.0,22.0,29.99,WNW,301,2.0,6.0,24,-99.99,,,-99.99,0.000000,,2013-04-01 10:33:00,
2013-04-01 04:42:00,57.0,21.0,29.99,NE,54,2.0,4.0,24,-99.99,,,-99.99,0.000000,,2013-04-01 10:42:00,
2013-04-01 04:53:00,57.0,21.0,29.99,NE,54,2.0,4.0,24,-99.99,,,-99.99,0.000000,,2013-04-01 10:53:00,
2013-04-01 05:03:00,56.0,22.0,30.00,NW,320,2.0,4.0,26,-99.99,,,-99.99,0.000000,,2013-04-01 11:03:00,
2013-04-01 05:13:00,55.0,23.0,30.00,ESE,115,2.0,6.0,28,-99.99,,,-99.99,0.000000,,2013-04-01 11:13:00,
2013-04-01 05:23:00,55.0,23.0,30.00,ESE,115,2.0,6.0,28,-99.99,,,-99.99,0.000000,,2013-04-01 11:23:00,
2013-04-01 05:33:00,55.0,22.0,30.00,SW,235,2.0,7.0,27,-99.99,,,-99.99,0.000000,,2013-04-01 11:33:00,
2013-04-01 05:42:00,56.0,20.0,30.00,SSE,147,2.0,4.0,24,-99.99,,,-99.99,0.000000,,2013-04-01 11:42:00,
2013-04-01 05:53:00,56.0,20.0,30.00,SSE,147,2.0,4.0,24,-99.99,,,-99.99,0.000000,,2013-04-01 11:53:00,
2013-04-01 06:02:00,57.0,21.0,30.00,SSW,199,2.0,3.0,24,-99.99,,,-99.99,0.000000,,2013-04-01 12:02:00,
2013-04-01 06:12:00,56.0,21.0,30.00,West,277,2.0,6.0,25,-99.99,,,-99.99,0.000000,,2013-04-01 12:12:00,
2013-04-01 06:23:00,56.0,21.0,30.00,West,277,2.0,6.0,25,-99.99,,,-99.99,0.000000,,2013-04-01 12:23:00,
2013-04-01 06:32:00,56.0,21.0,30.00,West,277,2.0,6.0,25,-99.99,,,-99.99,0.000000,,2013-04-01 12:32:00,
2013-04-01 06:42:00,54.0,23.0,30.01,SW,229,2.0,3.0,29,-99.99,,,-99.99,0.000000,,2013-04-01 12:42:00,
2013-04-01 06:53:00,54.0,23.0,30.01,SW,229,2.0,3.0,29,-99.99,,,-99.99,0.000000,,2013-04-01 12:53:00,
2013-04-01 07:03:00,56.0,21.0,30.01,WSW,257,3.0,6.0,26,-99.99,,,-99.99,0.000000,,2013-04-01 13:03:00,
2013-04-01 07:12:00,58.0,22.0,30.01,West,260,4.0,7.0,24,-99.99,,,-99.99,0.000000,,2013-04-01 13:12:00,
2013-04-01 07:22:00,58.0,22.0,30.01,West,260,4.0,7.0,24,-99.99,,,-99.99,0.000000,,2013-04-01 13:22:00,
2013-04-01 07:32:00,60.0,23.0,30.02,WSW,244,5.0,6.0,24,-99.99,,,-99.99,4.180000,,2013-04-01 13:32:00,
2013-04-01 07:42:00,60.0,23.0,30.02,WSW,244,5.0,6.0,24,-99.99,,,-99.99,25.100000,,2013-04-01 13:42:00,
2013-04-01 07:52:00,60.0,23.0,30.02,WSW,244,5.0,6.0,24,-99.99,,,-99.99,25.100000,,2013-04-01 13:52:00,
2013-04-01 08:03:00,61.0,24.0,30.02,WSW,241,5.0,6.0,24,-99.99,,,-99.99,74.610001,,2013-04-01 14:03:00,
2013-04-01 08:12:00,61.0,24.0,30.02,WSW,241,5.0,6.0,24,-99.99,,,-99.99,74.610001,,2013-04-01 14:12:00,
2013-04-01 08:22:00,61.0,24.0,30.02,WSW,241,5.0,6.0,24,-99.99,,,-99.99,74.610001,,2013-04-01 14:22:00,
2013-04-01 08:32:00,66.0,26.0,30.04,WSW,255,4.0,5.0,22,-99.99,,,-99.99,187.580002,,2013-04-01 14:32:00,
2013-04-01 08:42:00,70.0,24.0,30.04,WSW,252,3.0,5.0,17,-99.99,,,-99.99,232.910004,,2013-04-01 14:42:00,
2013-04-01 08:53:00,70.0,24.0,30.04,WSW,252,3.0,5.0,17,-99.99,,,-99.99,232.910004,,2013-04-01 14:53:00,
2013-04-01 09:03:00,72.0,21.0,30.04,West,269,4.0,9.0,14,-99.99,,,-99.99,305.429993,,2013-04-01 15:03:00,
2013-04-01 09:13:00,72.0,19.0,30.04,West,281,5.0,9.0,13,-99.99,,,-99.99,348.670013,,2013-04-01 15:13:00,
2013-04-01 09:22:00,72.0,19.0,30.04,West,281,5.0,9.0,13,-99.99,,,-99.99,348.670013,,2013-04-01 15:22:00,
2013-04-01 09:34:00,73.0,20.0,30.04,West,270,6.0,13.0,13,-99.99,,,-99.99,400.970001,,2013-04-01 15:34:00,
2013-04-01 09:43:00,73.0,20.0,30.04,West,277,7.0,12.0,13,-99.99,,,-99.99,467.910004,,2013-04-01 15:43:00,
2013-04-01 09:54:00,73.0,20.0,30.04,West,277,7.0,12.0,13,-99.99,,,-99.99,467.910004,,2013-04-01 15:54:00,
2013-04-01 10:03:00,74.0,19.0,30.04,WNW,292,7.0,17.0,12,-99.99,,,-99.99,499.989990,,2013-04-01 16:03:00,
2013-04-01 10:13:00,74.0,19.0,30.04,WNW,291,9.0,16.0,12,-99.99,,,-99.99,541.830017,,2013-04-01 16:13:00,
2013-04-01 10:23:00,74.0,19.0,30.04,WNW,291,9.0,16.0,12,-99.99,,,-99.99,541.830017,,2013-04-01 16:23:00,
2013-04-01 10:33:00,74.0,19.0,30.04,WNW,291,9.0,16.0,12,-99.99,,,-99.99,541.830017,,2013-04-01 16:33:00,
2013-04-01 10:42:00,74.0,19.0,30.04,WNW,291,9.0,16.0,12,-99.99,,,-99.99,541.830017,,2013-04-01 16:42:00,
2013-04-01 11:32:00,76.0,19.0,30.04,WNW,296,13.0,22.0,11,-99.99,,,-99.99,781.710022,,2013-04-01 17:32:00,
2013-04-01 11:42:00,76.0,18.0,30.04,WNW,293,15.0,24.0,11,-99.99,,,-99.99,810.299988,,2013-04-01 17:42:00,
2013-04-01 11:53:00,76.0,18.0,30.04,WNW,293,15.0,24.0,11,-99.99,,,-99.99,810.299988,,2013-04-01 17:53:00,
2013-04-01 12:02:00,76.0,18.0,30.04,WNW,293,15.0,24.0,11,-99.99,,,-99.99,810.299988,,2013-04-01 18:02:00,
2013-04-01 12:12:00,76.0,18.0,30.04,WNW,288,13.0,27.0,10,-99.99,,,-99.99,889.099976,,2013-04-01 18:12:00,
2013-04-01 12:22:00,76.0,18.0,30.04,WNW,288,13.0,27.0,10,-99.99,,,-99.99,889.099976,,2013-04-01 18:22:00,
2013-04-01 12:32:00,76.0,17.0,30.03,West,276,14.0,27.0,10,-99.99,,,-99.99,908.630005,,2013-04-01 18:32:00,
2013-04-01 12:42:00,76.0,17.0,30.03,West,276,14.0,27.0,10,-99.99,,,-99.99,908.630005,,2013-04-01 18:42:00,
2013-04-01 12:53:00,76.0,17.0,30.03,West,276,14.0,27.0,10,-99.99,,,-99.99,908.630005,,2013-04-01 18:53:00,
2013-04-01 13:03:00,77.0,17.0,30.03,WNW,285,15.0,29.0,10,-99.99,,,-99.99,924.659973,,2013-04-01 19:03:00,
2013-04-01 13:13:00,77.0,17.0,30.02,West,270,13.0,30.0,10,-99.99,,,-99.99,940.010010,,2013-04-01 19:13:00,
2013-04-01 13:23:00,77.0,17.0,30.02,West,270,13.0,30.0,10,-99.99,,,-99.99,940.010010,,2013-04-01 19:23:00,
2013-04-01 13:32:00,78.0,18.0,30.01,SW,222,6.0,21.0,10,-99.99,,,-99.99,951.859985,,2013-04-01 19:32:00,
2013-04-01 13:42:00,78.0,17.0,30.00,WSW,237,10.0,24.0,10,-99.99,,,-99.99,953.250000,,2013-04-01 19:42:00,
2013-04-01 13:53:00,78.0,17.0,30.00,WSW,237,10.0,24.0,10,-99.99,,,-99.99,953.250000,,2013-04-01 19:53:00,
2013-04-01 14:02:00,78.0,17.0,30.00,West,273,13.0,27.0,10,-99.99,,,-99.99,952.559998,,2013-04-01 20:02:00,
2013-04-01 14:12:00,78.0,17.0,30.00,West,273,13.0,27.0,10,-99.99,,,-99.99,952.559998,,2013-04-01 20:12:00,
2013-04-01 14:22:00,78.0,17.0,30.00,West,273,13.0,27.0,10,-99.99,,,-99.99,952.559998,,2013-04-01 20:22:00,
2013-04-01 14:32:00,79.0,16.0,29.98,SW,235,12.0,26.0,9,-99.99,,,-99.99,933.030029,,2013-04-01 20:32:00,
2013-04-01 14:42:00,79.0,16.0,29.98,SW,235,12.0,26.0,9,-99.99,,,-99.99,933.030029,,2013-04-01 20:42:00,
2013-04-01 14:52:00,79.0,16.0,29.98,SW,235,12.0,26.0,9,-99.99,,,-99.99,933.030029,,2013-04-01 20:52:00,
2013-04-01 15:02:00,79.0,16.0,29.96,WSW,257,13.0,27.0,9,-99.99,,,-99.99,901.650024,,2013-04-01 21:02:00,
2013-04-01 15:12:00,79.0,16.0,29.96,WSW,257,13.0,27.0,9,-99.99,,,-99.99,901.650024,,2013-04-01 21:12:00,
2013-04-01 15:23:00,79.0,16.0,29.96,WSW,257,13.0,27.0,9,-99.99,,,-99.99,901.650024,,2013-04-01 21:23:00,
2013-04-01 15:32:00,79.0,15.0,29.95,WSW,255,14.0,26.0,8,-99.99,,,-99.99,878.640015,,2013-04-01 21:32:00,
2013-04-01 15:43:00,79.0,15.0,29.94,West,262,12.0,25.0,8,-99.99,,,-99.99,850.049988,,2013-04-01 21:43:00,
2013-04-01 15:53:00,79.0,15.0,29.94,West,262,12.0,25.0,8,-99.99,,,-99.99,850.049988,,2013-04-01 21:53:00,
2013-04-01 16:02:00,80.0,14.0,29.93,SSW,208,9.0,21.0,8,-99.99,,,-99.99,781.710022,,2013-04-01 22:02:00,
2013-04-01 16:12:00,80.0,14.0,29.93,SSW,208,9.0,21.0,8,-99.99,,,-99.99,781.710022,,2013-04-01 22:12:00,
2013-04-01 16:22:00,80.0,14.0,29.93,SSW,208,9.0,21.0,8,-99.99,,,-99.99,781.710022,,2013-04-01 22:22:00,
2013-04-01 16:33:00,80.0,14.0,29.93,West,277,10.0,25.0,7,-99.99,,,-99.99,704.309998,,2013-04-01 22:33:00,
2013-04-01 16:43:00,80.0,14.0,29.93,West,277,10.0,25.0,7,-99.99,,,-99.99,704.309998,,2013-04-01 22:43:00,
2013-04-01 16:52:00,80.0,14.0,29.93,West,277,10.0,25.0,7,-99.99,,,-99.99,704.309998,,2013-04-01 22:52:00,
2013-04-01 17:02:00,80.0,15.0,29.91,West,280,8.0,21.0,8,-99.99,,,-99.99,605.289978,,2013-04-01 23:02:00,
2013-04-01 17:12:00,81.0,16.0,29.90,SSW,208,4.0,9.0,8,-99.99,,,-99.99,556.469971,,2013-04-01 23:12:00,
2013-04-01 17:23:00,81.0,16.0,29.90,SSW,208,4.0,9.0,8,-99.99,,,-99.99,556.469971,,2013-04-01 23:23:00,
2013-04-01 17:32:00,81.0,16.0,29.90,SSW,208,4.0,9.0,8,-99.99,,,-99.99,556.469971,,2013-04-01 23:32:00,
2013-04-01 17:43:00,80.0,13.0,29.89,West,272,7.0,21.0,7,-99.99,,,-99.99,449.779999,,2013-04-01 23:43:00,
2013-04-01 17:53:00,80.0,13.0,29.89,West,272,7.0,21.0,7,-99.99,,,-99.99,449.779999,,2013-04-01 23:53:00,
2013-04-01 18:03:00,80.0,13.0,29.89,West,272,7.0,21.0,7,-99.99,,,-99.99,449.779999,,2013-04-02 00:03:00,
2013-04-01 18:12:00,80.0,14.0,29.89,SW,216,6.0,17.0,8,-99.99,,,-99.99,398.179993,,2013-04-02 00:12:00,
2013-04-01 18:22:00,80.0,14.0,29.89,SW,216,6.0,17.0,8,-99.99,,,-99.99,398.179993,,2013-04-02 00:22:00,
2013-04-01 18:33:00,79.0,12.0,29.89,SW,223,11.0,23.0,7,-99.99,,,-99.99,289.390015,,2013-04-02 00:33:00,
2013-04-01 18:42:00,79.0,12.0,29.89,SW,223,11.0,23.0,7,-99.99,,,-99.99,289.390015,,2013-04-02 00:42:00,
2013-04-01 18:53:00,79.0,12.0,29.89,SW,223,11.0,23.0,7,-99.99,,,-99.99,289.390015,,2013-04-02 00:53:00,
2013-04-01 19:02:00,77.0,13.0,29.88,SSW,213,6.0,16.0,8,-99.99,,,-99.99,44.630001,,2013-04-02 01:02:00,
2013-04-01 19:12:00,77.0,11.0,29.88,SE,136,3.0,7.0,8,-99.99,,,-99.99,79.500000,,2013-04-02 01:12:00,
2013-04-01 19:22:00,77.0,11.0,29.88,SE,136,3.0,7.0,8,-99.99,,,-99.99,79.500000,,2013-04-02 01:22:00,
2013-04-01 19:32:00,77.0,11.0,29.88,SE,136,3.0,7.0,8,-99.99,,,-99.99,79.500000,,2013-04-02 01:32:00,
2013-04-01 19:42:00,77.0,12.0,29.89,WSW,252,5.0,13.0,8,-99.99,,,-99.99,28.590000,,2013-04-02 01:42:00,
2013-04-01 19:53:00,77.0,12.0,29.89,WSW,252,5.0,13.0,8,-99.99,,,-99.99,28.590000,,2013-04-02 01:53:00,
2013-04-01 20:03:00,76.0,12.0,29.89,SW,223,2.0,6.0,8,-99.99,,,-99.99,7.670000,,2013-04-02 02:03:00,
2013-04-01 20:12:00,74.0,15.0,29.89,NW,325,5.0,9.0,10,-99.99,,,-99.99,0.700000,,2013-04-02 02:12:00,
2013-04-01 20:22:00,74.0,15.0,29.89,NW,325,5.0,9.0,10,-99.99,,,-99.99,0.700000,,2013-04-02 02:22:00,
2013-04-01 20:32:00,72.0,13.0,29.89,WNW,282,7.0,12.0,10,-99.99,,,-99.99,0.000000,,2013-04-02 02:32:00,
2013-04-01 20:42:00,73.0,13.0,29.90,WNW,286,7.0,13.0,10,-99.99,,,-99.99,0.000000,,2013-04-02 02:42:00,
2013-04-01 20:53:00,73.0,13.0,29.90,WNW,286,7.0,13.0,10,-99.99,,,-99.99,0.000000,,2013-04-02 02:53:00,
2013-04-01 21:02:00,73.0,14.0,29.90,West,281,10.0,18.0,10,-99.99,,,-99.99,0.000000,,2013-04-02 03:02:00,
2013-04-01 21:12:00,73.0,15.0,29.91,WNW,283,10.0,21.0,10,-99.99,,,-99.99,0.000000,,2013-04-02 03:12:00,
2013-04-01 21:22:00,73.0,15.0,29.91,WNW,283,10.0,21.0,10,-99.99,,,-99.99,0.000000,,2013-04-02 03:22:00,
2013-04-01 21:33:00,73.0,14.0,29.91,West,279,9.0,17.0,10,-99.99,,,-99.99,0.000000,,2013-04-02 03:33:00,
2013-04-01 21:43:00,72.0,14.0,29.91,West,281,9.0,15.0,10,-99.99,,,-99.99,0.000000,,2013-04-02 03:43:00,
2013-04-01 21:53:00,72.0,14.0,29.91,West,281,9.0,15.0,10,-99.99,,,-99.99,0.000000,,2013-04-02 03:53:00,
2013-04-01 22:03:00,71.0,15.0,29.91,West,277,8.0,13.0,11,-99.99,,,-99.99,0.000000,,2013-04-02 04:03:00,
2013-04-01 22:13:00,70.0,15.0,29.91,West,279,7.0,12.0,11,-99.99,,,-99.99,0.000000,,2013-04-02 04:13:00,
2013-04-01 22:23:00,70.0,15.0,29.91,West,279,7.0,12.0,11,-99.99,,,-99.99,0.000000,,2013-04-02 04:23:00,
2013-04-01 22:32:00,67.0,14.0,29.91,WNW,297,7.0,10.0,12,-99.99,,,-99.99,0.000000,,2013-04-02 04:32:00,
2013-04-01 22:43:00,67.0,13.0,29.91,WNW,290,9.0,12.0,12,-99.99,,,-99.99,0.000000,,2013-04-02 04:43:00,
2013-04-01 22:53:00,67.0,13.0,29.91,WNW,290,9.0,12.0,12,-99.99,,,-99.99,0.000000,,2013-04-02 04:53:00,
2013-04-01 23:02:00,65.0,13.0,29.91,WNW,289,9.0,14.0,13,-99.99,,,-99.99,0.000000,,2013-04-02 05:02:00,
2013-04-01 23:12:00,64.0,13.0,29.91,WNW,296,9.0,12.0,13,-99.99,,,-99.99,0.000000,,2013-04-02 05:12:00,
2013-04-01 23:22:00,64.0,13.0,29.91,WNW,296,9.0,12.0,13,-99.99,,,-99.99,0.000000,,2013-04-02 05:22:00,
2013-04-01 23:32:00,64.0,14.0,29.91,WNW,288,10.0,12.0,14,-99.99,,,-99.99,0.000000,,2013-04-02 05:32:00,
2013-04-01 23:42:00,64.0,14.0,29.91,WNW,288,10.0,12.0,14,-99.99,,,-99.99,0.000000,,2013-04-02 05:42:00,
2013-04-01 23:52:00,64.0,14.0,29.91,WNW,288,10.0,12.0,14,-99.99,,,-99.99,0.000000,,2013-04-02 05:52:00,